Time;durP1;ratioP1;P1;durP2;ratioP2;P2;SDS_P1;SDS_P2;PMS_P1;PMS_P2;Temp;Humidity;BMP_temperature;BMP_pressure;BME280_temperature;BME280_humidity;BME280_pressure;Samples;Min_cycle;Max_cycle;Signal;HPM_P1;HPM_P2
2024/04/07 00:00:58;;;;;;;17.27;3.75;;;;;;;11.33;100.00;100509.34;5108708;28;20043;-72
2024/04/07 00:03:23;;;;;;;19.13;3.75;;;;;;;11.34;100.00;100526.31;5126823;28;20024;-72
2024/04/07 00:05:55;;;;;;;17.70;3.35;;;;;;;11.32;100.00;100517.59;5103404;28;20055;-73
2024/04/07 00:08:22;;;;;;;14.82;3.13;;;;;;;11.28;100.00;100523.41;5118002;28;20082;-72
2024/04/07 00:10:47;;;;;;;16.20;3.90;;;;;;;11.11;100.00;100495.28;5088268;28;20035;-72
2024/04/07 00:13:13;;;;;;;16.60;3.60;;;;;;;11.26;100.00;100522.00;5088015;28;20036;-72
2024/04/07 00:15:38;;;;;;;18.30;3.50;;;;;;;11.23;100.00;100525.94;5123203;28;20058;-73
2024/04/07 00:18:04;;;;;;;14.65;3.65;;;;;;;11.22;100.00;100523.44;5089312;28;20031;-74
2024/04/07 00:20:29;;;;;;;15.25;3.65;;;;;;;11.17;100.00;100545.63;5103338;28;20107;-72
2024/04/07 00:22:55;;;;;;;22.25;3.83;;;;;;;11.17;100.00;100548.31;5088639;28;20043;-73
2024/04/07 00:25:20;;;;;;;18.30;3.50;;;;;;;11.14;100.00;100532.56;5089069;28;20046;-72
2024/04/07 00:27:45;;;;;;;15.57;3.40;;;;;;;11.11;100.00;100532.16;5103269;28;20051;-72
2024/04/07 00:30:11;;;;;;;17.05;4.20;;;;;;;10.97;100.00;100515.19;5103590;28;20024;-73
2024/04/07 00:32:36;;;;;;;21.42;4.00;;;;;;;11.10;100.00;100531.34;5104379;28;20023;-72
2024/04/07 00:35:03;;;;;;;15.38;3.63;;;;;;;11.08;100.00;100514.56;5104402;28;20024;-72
2024/04/07 00:37:28;;;;;;;21.25;4.07;;;;;;;10.89;100.00;100496.56;5104836;28;20095;-73
2024/04/07 00:39:56;;;;;;;14.23;3.60;;;;;;;11.04;100.00;100540.25;5104319;28;20250;-73
2024/04/07 00:42:21;;;;;;;19.85;4.07;;;;;;;10.96;100.00;100526.97;5086936;28;20186;-74
2024/04/07 00:44:47;;;;;;;19.05;4.43;;;;;;;10.96;100.00;100545.81;5102893;28;20553;-72
2024/04/07 00:47:13;;;;;;;18.50;3.90;;;;;;;10.90;100.00;100538.59;5123352;28;20038;-72
2024/04/07 00:49:43;;;;;;;19.42;4.05;;;;;;;10.85;100.00;100538.38;5104166;28;20481;-72
2024/04/07 00:52:09;;;;;;;20.55;4.22;;;;;;;10.86;100.00;100537.34;5103426;28;20019;-71
2024/04/07 00:54:34;;;;;;;17.42;3.95;;;;;;;10.54;100.00;100494.91;5103847;28;20023;-72
2024/04/07 00:57:00;;;;;;;16.55;4.00;;;;;;;10.58;100.00;100498.84;5087858;28;20080;-72
2024/04/07 00:59:26;;;;;;;15.90;3.85;;;;;;;10.78;100.00;100536.53;5104554;28;20035;-72
2024/04/07 01:01:52;;;;;;;17.42;3.50;;;;;;;10.75;100.00;100528.03;5103442;28;20120;-72
2024/04/07 01:04:17;;;;;;;16.23;4.43;;;;;;;10.78;100.00;100528.44;5086738;28;20016;-72
2024/04/07 01:06:43;;;;;;;17.48;3.90;;;;;;;10.69;100.00;100510.03;5104108;28;20073;-72
2024/04/07 01:09:09;;;;;;;16.77;3.90;;;;;;;10.78;100.00;100527.63;5125207;28;20043;-72
2024/04/07 01:11:35;;;;;;;16.75;4.03;;;;;;;10.74;100.00;100529.91;5107819;28;20035;-72
2024/04/07 01:14:02;;;;;;;14.60;4.03;;;;;;;10.75;100.00;100536.09;5125586;28;20084;-71
2024/04/07 01:16:28;;;;;;;19.02;4.25;;;;;;;10.63;100.00;100522.47;5090263;28;20028;-71
2024/04/07 01:18:53;;;;;;;18.33;4.25;;;;;;;10.70;100.00;100536.75;5106839;28;20334;-72
2024/04/07 01:21:19;;;;;;;20.58;4.00;;;;;;;10.64;100.00;100526.78;5107014;28;20024;-72
2024/04/07 01:23:44;;;;;;;19.65;4.43;;;;;;;10.68;100.00;100535.28;5091373;28;20059;-71
2024/04/07 01:26:09;;;;;;;22.00;4.43;;;;;;;10.63;100.00;100525.16;5090412;28;20069;-72
2024/04/07 01:28:35;;;;;;;15.85;3.90;;;;;;;10.62;100.00;100534.22;5107958;28;20397;-71
2024/04/07 01:31:01;;;;;;;20.48;4.55;;;;;;;10.63;100.00;100546.69;5089901;28;20030;-71
2024/04/07 01:33:27;;;;;;;15.00;4.18;;;;;;;10.64;100.00;100534.88;5108032;28;20027;-72
2024/04/07 01:35:52;;;;;;;18.63;4.18;;;;;;;10.63;100.00;100535.91;5126213;28;20055;-72
2024/04/07 01:38:18;;;;;;;20.83;4.88;;;;;;;10.61;100.00;100539.84;5107080;28;20036;-74
2024/04/07 01:40:47;;;;;;;19.00;4.80;;;;;;;10.57;100.00;100525.97;5072880;28;20049;-73
2024/04/07 01:43:13;;;;;;;18.35;4.28;;;;;;;10.60;100.00;100536.31;5125931;28;20019;-71
2024/04/07 01:45:38;;;;;;;17.58;4.10;;;;;;;10.56;100.00;100532.34;5107418;28;20425;-73
2024/04/07 01:48:04;;;;;;;16.40;3.85;;;;;;;10.52;100.00;100507.72;5089869;28;20020;-73
2024/04/07 01:50:30;;;;;;;20.08;4.07;;;;;;;10.53;100.00;100503.22;5107509;28;20050;-73
2024/04/07 01:52:55;;;;;;;20.70;4.53;;;;;;;10.54;100.00;100521.00;5106857;28;20031;-72
2024/04/07 01:55:21;;;;;;;18.38;4.82;;;;;;;10.47;100.00;100515.59;5106525;28;20036;-72
2024/04/07 01:57:46;;;;;;;20.40;3.97;;;;;;;10.17;100.00;100485.53;5089507;28;20543;-73
2024/04/07 02:00:12;;;;;;;18.63;4.65;;;;;;;10.10;100.00;100485.53;5105969;28;20032;-72
2024/04/07 02:02:37;;;;;;;16.67;4.35;;;;;;;10.13;100.00;100492.34;5124388;28;20084;-72
2024/04/07 02:05:05;;;;;;;19.23;4.70;;;;;;;10.00;100.00;100490.47;5105775;28;20084;-73
2024/04/07 02:07:32;;;;;;;15.27;4.40;;;;;;;9.83;100.00;100460.47;5087890;28;20043;-72
2024/04/07 02:09:58;;;;;;;15.73;4.25;;;;;;;9.98;100.00;100487.16;5123564;28;20144;-72
2024/04/07 02:12:23;;;;;;;19.30;4.15;;;;;;;9.90;100.00;100479.28;5105121;28;20055;-72
2024/04/07 02:14:49;;;;;;;23.10;4.93;;;;;;;9.91;100.00;100485.47;5088162;28;20024;-72
2024/04/07 02:17:15;;;;;;;25.48;5.15;;;;;;;9.88;100.00;100481.34;5105628;28;20386;-73
2024/04/07 02:19:41;;;;;;;26.95;5.25;;;;;;;9.84;100.00;100475.53;5087614;28;20057;-73
2024/04/07 02:22:07;;;;;;;27.70;4.65;;;;;;;9.84;100.00;100478.22;5124201;28;20023;-72
2024/04/07 02:24:32;;;;;;;22.20;5.07;;;;;;;9.85;100.00;100479.88;5105488;28;20506;-73
2024/04/07 02:26:58;;;;;;;16.60;4.20;;;;;;;9.87;100.00;100485.06;5105818;28;20032;-73
2024/04/07 02:29:24;;;;;;;17.25;4.07;;;;;;;9.70;100.00;100454.19;5089816;28;20027;-72
2024/04/07 02:31:49;;;;;;;16.08;3.80;;;;;;;9.88;100.00;100470.59;5123826;28;20031;-72
2024/04/07 02:34:15;;;;;;;16.98;4.43;;;;;;;9.73;100.00;100446.56;5104585;28;20034;-73
2024/04/07 02:36:40;;;;;;;16.13;4.18;;;;;;;9.82;100.00;100448.03;5103860;28;20469;-73
2024/04/07 02:39:09;;;;;;;14.30;4.20;;;;;;;9.89;100.00;100474.91;5103979;28;20020;-73
2024/04/07 02:41:37;;;;;;;18.63;4.55;;;;;;;9.88;100.00;100473.28;5122739;28;20087;-72
2024/04/07 02:44:03;;;;;;;16.88;4.25;;;;;;;9.87;100.00;100468.94;5122261;28;20161;-73
2024/04/07 02:49:13;;;;;;;;;;;;;;;9.82;100.00;100452.59;5123788;28;20042;-72
2024/04/07 02:51:39;;;;;;;15.57;4.13;;;;;;;9.81;100.00;100441.00;5106570;28;19911;-72
2024/04/07 02:54:04;;;;;;;19.05;4.70;;;;;;;9.32;100.00;100358.84;5123840;28;20039;-73
2024/04/07 02:56:30;;;;;;;21.65;4.93;;;;;;;9.85;100.00;100457.56;5124412;28;20027;-74
2024/04/07 02:58:55;;;;;;;15.90;4.25;;;;;;;9.87;100.00;100445.56;5124662;28;20024;-72
2024/04/07 03:01:21;;;;;;;19.05;5.07;;;;;;;9.93;100.00;100448.47;5084460;28;20430;-73
2024/04/07 03:03:48;;;;;;;18.95;5.22;;;;;;;9.97;100.00;100436.28;5085060;28;20057;-73
2024/04/07 03:06:14;;;;;;;14.55;4.15;;;;;;;10.01;100.00;100437.53;5123871;28;20031;-72
2024/04/07 03:08:40;;;;;;;18.17;5.10;;;;;;;10.00;100.00;100438.53;5104712;28;20056;-74
2024/04/07 03:11:06;;;;;;;15.65;4.70;;;;;;;10.03;100.00;100430.06;5122780;28;20042;-72
2024/04/07 03:13:32;;;;;;;13.80;4.68;;;;;;;10.08;100.00;100430.31;5105855;28;20023;-72
2024/04/07 03:15:58;;;;;;;16.95;4.38;;;;;;;10.07;100.00;100439.41;5123829;28;20029;-73
2024/04/07 03:18:24;;;;;;;15.30;4.72;;;;;;;10.13;100.00;100449.31;5088918;28;20031;-72
2024/04/07 03:20:49;;;;;;;17.02;4.75;;;;;;;10.18;100.00;100448.72;5123189;28;20028;-72
2024/04/07 03:23:15;;;;;;;14.30;4.63;;;;;;;10.17;100.00;100453.28;5104539;28;20027;-73
2024/04/07 03:25:40;;;;;;;13.30;4.60;;;;;;;10.24;100.00;100456.78;5071131;28;20043;-73
2024/04/07 03:28:06;;;;;;;11.40;4.05;;;;;;;10.29;100.00;100462.41;5122182;28;20438;-72
2024/04/07 03:30:32;;;;;;;15.20;4.30;;;;;;;10.32;100.00;100453.09;5088326;28;20035;-72
2024/04/07 03:32:58;;;;;;;16.52;4.10;;;;;;;10.25;100.00;100423.50;5120658;28;20035;-73
2024/04/07 03:35:24;;;;;;;16.95;4.80;;;;;;;10.38;100.00;100452.28;5105090;28;20023;-73
2024/04/07 03:37:52;;;;;;;12.48;4.55;;;;;;;10.42;100.00;100450.84;5104051;28;20023;-72
2024/04/07 03:40:17;;;;;;;13.80;4.13;;;;;;;10.44;100.00;100435.31;5105012;28;20087;-72
2024/04/07 03:42:43;;;;;;;10.70;4.10;;;;;;;10.46;100.00;100437.78;5104045;28;20128;-72
2024/04/07 03:45:09;;;;;;;17.08;4.55;;;;;;;10.32;100.00;100416.28;5086697;28;20031;-73
2024/04/07 03:47:39;;;;;;;13.88;4.82;;;;;;;10.45;100.00;100422.69;5097142;28;20035;-72
2024/04/07 03:50:05;;;;;;;14.38;5.15;;;;;;;10.44;100.00;100418.34;5103146;28;20031;-72
2024/04/07 03:52:31;;;;;;;10.95;4.13;;;;;;;10.42;100.00;100406.97;5121529;28;20024;-73
2024/04/07 03:54:57;;;;;;;16.90;4.43;;;;;;;10.35;100.00;100406.97;5104672;28;20447;-72
2024/04/07 03:57:22;;;;;;;15.90;4.65;;;;;;;10.35;100.00;100410.47;5086364;28;20131;-73
2024/04/07 03:59:48;;;;;;;15.23;4.38;;;;;;;10.23;100.00;100401.38;5087075;28;20059;-73
2024/04/07 04:02:29;;;;;;;15.00;4.50;;;;;;;10.28;100.00;100427.66;5122634;28;20062;-72
2024/04/07 04:05:02;;;;;;;16.70;4.95;;;;;;;10.24;100.00;100410.25;5086428;28;20461;-72
2024/04/07 04:07:28;;;;;;;13.40;4.70;;;;;;;10.22;100.00;100426.59;5103684;28;20108;-72
2024/04/07 04:09:55;;;;;;;12.43;4.30;;;;;;;10.21;100.00;100419.56;5104478;28;20121;-72
2024/04/07 04:12:21;;;;;;;16.25;4.70;;;;;;;10.05;100.00;100411.91;5103833;28;20024;-73
2024/04/07 04:14:47;;;;;;;13.20;5.03;;;;;;;10.08;100.00;100425.75;5103393;28;20535;-72
2024/04/07 04:17:16;;;;;;;16.35;4.55;;;;;;;10.12;100.00;100447.69;5121397;28;20027;-73
2024/04/07 04:19:41;;;;;;;18.67;4.90;;;;;;;10.12;100.00;100456.56;5105060;28;20054;-73
2024/04/07 04:22:07;;;;;;;17.35;5.18;;;;;;;10.04;100.00;100446.03;5122290;28;20020;-73
2024/04/07 04:24:33;;;;;;;18.80;5.30;;;;;;;10.01;100.00;100446.44;5106246;28;20039;-73
2024/04/07 04:26:58;;;;;;;16.50;5.20;;;;;;;10.06;100.00;100459.25;5091194;28;20050;-73
2024/04/07 04:29:23;;;;;;;21.15;5.75;;;;;;;10.04;100.00;100462.16;5092566;28;20031;-73
2024/04/07 04:31:49;;;;;;;17.75;5.68;;;;;;;9.84;100.00;100440.59;5110140;28;20024;-74
2024/04/07 04:34:14;;;;;;;24.33;6.50;;;;;;;10.01;100.00;100461.72;5109950;28;20031;-73
2024/04/07 04:36:40;;;;;;;13.50;5.10;;;;;;;9.82;100.00;100423.84;5109995;28;20061;-73
2024/04/07 04:39:06;;;;;;;20.48;5.90;;;;;;;9.95;100.00;100462.53;5127693;28;20023;-73
2024/04/07 04:41:32;;;;;;;19.20;5.80;;;;;;;9.89;100.00;100474.91;5092683;28;20038;-73
2024/04/07 04:43:57;;;;;;;14.95;5.88;;;;;;;9.98;100.00;100470.19;5125949;28;20027;-74
2024/04/07 04:46:22;;;;;;;22.52;6.05;;;;;;;9.91;100.00;100450.53;5090843;28;20032;-72
2024/04/07 04:48:48;;;;;;;21.58;6.05;;;;;;;9.78;100.00;100419.91;5124033;28;20035;-72
2024/04/07 04:51:13;;;;;;;15.32;5.55;;;;;;;10.03;100.00;100456.97;5106909;28;20047;-73
2024/04/07 04:53:39;;;;;;;13.63;5.53;;;;;;;10.05;100.00;100465.66;5124585;28;20032;-74
2024/04/07 04:56:04;;;;;;;16.02;5.93;;;;;;;10.04;100.00;100450.56;5124461;28;20023;-74
2024/04/07 04:58:31;;;;;;;16.25;5.80;;;;;;;10.01;100.00;100445.59;5091798;28;20042;-73
2024/04/07 05:00:57;;;;;;;19.42;6.35;;;;;;;10.11;100.00;100454.91;5108667;28;20031;-73
2024/04/07 05:03:23;;;;;;;24.17;6.38;;;;;;;10.15;100.00;100458.03;5092988;28;20023;-72
2024/04/07 05:05:49;;;;;;;20.85;6.40;;;;;;;10.16;100.00;100467.72;5126778;28;20038;-74
2024/04/07 05:08:15;;;;;;;21.55;6.47;;;;;;;10.08;100.00;100473.31;5109534;28;20052;-73
2024/04/07 05:10:40;;;;;;;22.23;6.97;;;;;;;10.05;100.00;100446.84;5111001;28;20027;-74
2024/04/07 05:13:06;;;;;;;22.95;6.57;;;;;;;10.16;100.00;100448.91;5128496;28;20104;-73
2024/04/07 05:15:31;;;;;;;19.95;6.32;;;;;;;10.15;100.00;100465.25;5110220;28;20042;-73
2024/04/07 05:17:56;;;;;;;20.60;6.43;;;;;;;10.22;100.00;100477.69;5109940;28;20031;-73
2024/04/07 05:20:22;;;;;;;20.10;6.60;;;;;;;10.20;100.00;100473.53;5110209;28;20051;-73
2024/04/07 05:22:50;;;;;;;22.95;6.63;;;;;;;10.29;100.00;100453.50;5111032;28;20039;-73
2024/04/07 05:25:15;;;;;;;23.13;7.35;;;;;;;10.31;100.00;100451.47;5110689;28;20398;-74
2024/04/07 05:27:41;;;;;;;20.38;7.30;;;;;;;10.30;100.00;100463.25;5092795;28;20103;-72
2024/04/07 05:30:07;;;;;;;21.95;8.15;;;;;;;10.31;100.00;100473.78;5092564;28;20057;-73
2024/04/07 05:32:32;;;;;;;27.92;7.90;;;;;;;10.27;100.00;100460.97;5092621;28;20126;-74
2024/04/07 05:34:59;;;;;;;23.63;7.50;;;;;;;10.31;100.00;100498.00;5109406;28;20069;-72
2024/04/07 05:37:26;;;;;;;24.25;7.90;;;;;;;10.32;100.00;100517.66;5109223;28;20457;-73
2024/04/07 05:39:51;;;;;;;25.38;7.80;;;;;;;10.31;100.00;100503.38;5092903;28;20028;-73
2024/04/07 05:42:18;;;;;;;20.45;7.57;;;;;;;10.28;100.00;100536.06;5107239;28;20451;-73
2024/04/07 05:44:44;;;;;;;18.15;7.40;;;;;;;10.05;100.00;100501.44;5126674;28;20091;-73
2024/04/07 05:47:09;;;;;;;22.25;8.02;;;;;;;10.27;100.00;100504.81;5107810;28;20023;-73
2024/04/07 05:49:35;;;;;;;21.50;8.65;;;;;;;10.17;100.00;100482.03;5108500;28;20028;-73
2024/04/07 05:52:01;;;;;;;20.05;8.13;;;;;;;10.24;100.00;100494.44;5125294;28;20058;-73
2024/04/07 05:54:30;;;;;;;27.00;9.50;;;;;;;10.24;100.00;100509.75;5126491;28;20051;-73
2024/04/07 05:56:55;;;;;;;29.52;10.20;;;;;;;10.19;100.00;100485.31;5110829;28;20023;-73
2024/04/07 05:59:22;;;;;;;23.92;10.30;;;;;;;10.14;100.00;100482.44;5111008;28;20028;-73
2024/04/07 06:01:48;;;;;;;19.60;10.70;;;;;;;10.15;100.00;100490.28;5111530;28;20034;-71
2024/04/07 06:04:14;;;;;;;22.23;10.10;;;;;;;9.97;100.00;100512.38;5107438;28;20035;-73
2024/04/07 06:06:39;;;;;;;20.08;9.63;;;;;;;9.96;100.00;100508.00;5106505;28;20035;-73
2024/04/07 06:09:05;;;;;;;30.80;10.50;;;;;;;9.94;100.00;100512.78;5091338;28;20032;-72
2024/04/07 06:11:30;;;;;;;29.92;10.73;;;;;;;9.94;100.00;100520.03;5109807;28;20024;-75
2024/04/07 06:13:56;;;;;;;31.55;10.38;;;;;;;9.88;100.00;100524.34;5128416;28;20461;-75
2024/04/07 06:16:21;;;;;;;26.67;10.45;;;;;;;9.84;100.00;100537.34;5111080;28;20027;-73
2024/04/07 06:18:47;;;;;;;26.65;10.55;;;;;;;9.65;100.00;100513.91;5112336;28;20027;-74
2024/04/07 06:21:13;;;;;;;26.92;10.57;;;;;;;9.73;100.00;100524.47;5130598;28;20030;-78
2024/04/07 06:23:41;;;;;;;25.40;10.02;;;;;;;9.76;100.00;100550.13;5094427;28;20031;-74
2024/04/07 06:26:06;;;;;;;25.23;10.77;;;;;;;9.73;100.00;100555.88;5109353;28;20046;-73
2024/04/07 06:28:32;;;;;;;26.88;10.32;;;;;;;9.73;100.00;100572.84;5108883;28;20134;-72
2024/04/07 06:30:57;;;;;;;29.95;11.35;;;;;;;9.70;100.00;100577.78;5108766;28;20039;-75
2024/04/07 06:33:26;;;;;;;26.90;10.45;;;;;;;9.71;100.00;100564.16;5075752;28;20028;-74
2024/04/07 06:35:54;;;;;;;17.95;8.48;;;;;;;9.67;100.00;100552.16;5093499;28;20026;-77
2024/04/07 06:38:20;;;;;;;19.25;8.02;;;;;;;9.79;100.00;100560.47;5106983;28;20037;-74
2024/04/07 06:40:45;;;;;;;20.15;7.70;;;;;;;9.79;100.00;100553.22;5090134;28;20471;-72
2024/04/07 06:43:11;;;;;;;17.95;6.97;;;;;;;9.84;100.00;100552.66;5089886;28;20027;-78
2024/04/07 06:45:36;;;;;;;14.57;6.68;;;;;;;9.91;100.00;100558.88;5124960;28;20026;-75
2024/04/07 06:48:02;;;;;;;20.08;6.30;;;;;;;9.92;100.00;100557.00;5122901;28;20126;-75
2024/04/07 06:50:27;;;;;;;17.27;7.05;;;;;;;9.92;100.00;100543.56;5088408;28;20554;-73
2024/04/07 06:52:52;;;;;;;16.98;7.28;;;;;;;9.88;100.00;100541.28;5105021;28;20081;-73
2024/04/07 06:55:19;;;;;;;17.73;6.45;;;;;;;9.84;100.00;100529.28;5085295;28;20046;-73
2024/04/07 06:57:45;;;;;;;15.07;6.78;;;;;;;9.85;100.00;100528.25;5103420;28;20035;-74
2024/04/07 07:00:12;;;;;;;15.57;6.57;;;;;;;9.83;100.00;100541.06;5083952;28;20027;-74
2024/04/07 07:02:37;;;;;;;16.20;5.95;;;;;;;9.82;100.00;100542.09;5102740;28;20027;-74
2024/04/07 07:05:03;;;;;;;12.20;5.93;;;;;;;9.82;100.00;100550.16;5104341;28;20096;-74
2024/04/07 07:07:29;;;;;;;17.65;6.25;;;;;;;9.83;100.00;100543.75;5103882;28;20055;-74
2024/04/07 07:09:54;;;;;;;16.80;5.93;;;;;;;9.81;100.00;100540.44;5104728;28;20023;-74
2024/04/07 07:12:19;;;;;;;16.67;5.80;;;;;;;9.82;100.00;100538.56;5123572;28;20031;-75
2024/04/07 07:14:45;;;;;;;16.52;5.70;;;;;;;9.65;100.00;100519.28;5088079;28;20091;-75
2024/04/07 07:17:10;;;;;;;14.95;4.97;;;;;;;9.65;100.00;100530.03;5087669;28;20246;-74
2024/04/07 07:19:35;;;;;;;20.13;5.20;;;;;;;9.80;100.00;100562.97;5085058;28;20035;-74
2024/04/07 07:22:01;;;;;;;15.10;4.68;;;;;;;9.47;100.00;100509.09;5104021;28;20055;-74
2024/04/07 07:24:27;;;;;;;16.30;4.40;;;;;;;9.71;100.00;100550.72;5122359;28;20047;-74
2024/04/07 07:26:52;;;;;;;16.15;4.20;;;;;;;9.83;100.00;100567.94;5104308;28;20039;-76
2024/04/07 07:29:17;;;;;;;13.75;5.85;;;;;;;9.85;100.00;100576.63;5087208;28;20051;-74
2024/04/07 07:31:43;;;;;;;16.17;6.88;;;;;;;9.58;100.00;100554.16;5104672;28;20023;-74
2024/04/07 07:34:08;;;;;;;16.90;7.32;;;;;;;9.50;100.00;100559.69;5086738;28;20043;-75
2024/04/07 07:36:34;;;;;;;16.90;7.57;;;;;;;9.11;100.00;100514.66;5103900;28;20088;-75
2024/04/07 07:38:59;;;;;;;15.45;7.57;;;;;;;9.32;100.00;100557.53;5101934;28;20032;-75
2024/04/07 07:41:25;;;;;;;17.50;8.20;;;;;;;9.36;100.00;100544.53;5121343;28;20031;-74
2024/04/07 07:43:50;;;;;;;16.75;7.60;;;;;;;9.25;100.00;100542.41;5120889;28;20020;-74
2024/04/07 07:46:17;;;;;;;13.77;5.55;;;;;;;9.29;100.00;100539.13;5121562;28;20028;-75
2024/04/07 07:48:42;;;;;;;13.10;4.97;;;;;;;9.50;100.00;100553.50;5085888;28;20027;-75
2024/04/07 07:51:09;;;;;;;8.18;3.50;;;;;;;9.48;100.00;100532.22;5117185;28;20084;-75
2024/04/07 07:53:35;;;;;;;11.23;3.10;;;;;;;9.70;100.00;100548.22;5116743;28;20030;-73
2024/04/07 07:56:00;;;;;;;10.85;3.10;;;;;;;9.85;100.00;100551.59;5097567;28;20023;-75
2024/04/07 07:58:26;;;;;;;10.73;2.85;;;;;;;9.92;100.00;100539.03;5082119;28;20119;-74
2024/04/07 08:00:51;;;;;;;9.55;2.70;;;;;;;9.62;100.00;100501.69;5098480;28;20035;-74
2024/04/07 08:03:17;;;;;;;11.85;2.35;;;;;;;9.76;100.00;100502.56;5097253;28;20028;-74
2024/04/07 08:05:43;;;;;;;9.43;2.13;;;;;;;9.96;100.00;100524.13;5096917;28;20072;-74
2024/04/07 08:08:09;;;;;;;10.88;2.30;;;;;;;10.00;100.00;100525.41;5096638;28;20509;-74
2024/04/07 08:10:34;;;;;;;9.07;2.25;;;;;;;10.06;100.00;100542.56;5096926;28;20405;-74
2024/04/07 08:12:59;;;;;;;16.00;2.55;;;;;;;10.04;100.00;100547.34;5099142;28;20405;-74
2024/04/07 08:15:25;;;;;;;9.93;2.30;;;;;;;9.82;100.00;100501.78;5090998;28;20054;-74
2024/04/07 08:17:50;;;;;;;7.78;2.17;;;;;;;10.05;100.00;100538.25;5088479;28;20027;-75
2024/04/07 08:20:16;;;;;;;8.82;2.03;;;;;;;10.09;100.00;100534.09;5090872;28;20051;-75
2024/04/07 08:22:41;;;;;;;10.75;2.33;;;;;;;10.05;100.00;100539.06;5125345;28;20032;-75
2024/04/07 08:25:07;;;;;;;10.93;2.10;;;;;;;10.21;100.00;100566.63;5101001;28;20031;-74
2024/04/07 08:27:33;;;;;;;10.80;2.08;;;;;;;10.23;100.00;100562.72;5106890;28;20379;-75
2024/04/07 08:29:59;;;;;;;9.20;2.00;;;;;;;10.04;100.00;100532.03;5126808;28;20036;-75
2024/04/07 08:32:24;;;;;;;15.38;2.15;;;;;;;10.28;100.00;100565.63;5090773;28;20031;-75
2024/04/07 08:34:49;;;;;;;7.60;1.67;;;;;;;10.19;100.00;100539.94;5121594;28;20122;-73
2024/04/07 08:37:15;;;;;;;7.25;1.80;;;;;;;10.31;100.00;100559.03;5097552;28;20043;-74
2024/04/07 08:39:40;;;;;;;7.63;1.52;;;;;;;10.05;100.00;100530.19;5115972;28;20106;-74
2024/04/07 08:42:08;;;;;;;10.52;1.90;;;;;;;10.26;100.00;100559.63;5115438;28;20046;-74
2024/04/07 08:44:37;;;;;;;7.03;1.70;;;;;;;10.20;100.00;100570.31;5096815;28;20076;-74
2024/04/07 08:47:05;;;;;;;13.20;1.77;;;;;;;10.19;100.00;100566.00;5098084;28;20051;-74
2024/04/07 08:49:33;;;;;;;11.50;2.05;;;;;;;10.30;100.00;100578.91;5115397;28;20023;-74
2024/04/07 08:52:01;;;;;;;7.40;1.60;;;;;;;10.23;100.00;100554.66;5115204;28;20508;-76
2024/04/07 08:54:26;;;;;;;9.70;2.00;;;;;;;10.54;100.00;100591.78;5096958;28;20391;-75
2024/04/07 08:56:53;;;;;;;10.50;2.08;;;;;;;10.62;100.00;100606.06;5080175;28;20033;-73
2024/04/07 08:59:20;;;;;;;15.98;2.30;;;;;;;10.61;100.00;100564.06;5081183;28;20040;-73
2024/04/07 09:01:46;;;;;;;9.60;1.95;;;;;;;10.78;100.00;100584.97;5096985;28;20047;-73
2024/04/07 09:04:12;;;;;;;11.40;1.90;;;;;;;10.89;100.00;100588.06;5098370;28;20371;-75
2024/04/07 09:06:38;;;;;;;10.65;1.75;;;;;;;10.98;100.00;100579.59;5099621;28;20393;-74
2024/04/07 09:09:04;;;;;;;10.48;1.70;;;;;;;11.14;100.00;100586.44;5100077;28;20031;-76
2024/04/07 09:11:35;;;;;;;8.98;1.55;;;;;;;11.14;100.00;100572.97;5082805;28;20055;-73
2024/04/07 09:14:01;;;;;;;10.00;1.80;;;;;;;11.19;100.00;100569.63;5098233;28;20027;-74
2024/04/07 09:16:26;;;;;;;7.88;1.35;;;;;;;11.31;100.00;100570.66;5098968;28;20019;-73
2024/04/07 09:18:52;;;;;;;12.02;1.88;;;;;;;11.36;100.00;100568.19;5080721;28;20031;-73
2024/04/07 09:21:21;;;;;;;8.02;1.77;;;;;;;10.94;100.00;100494.91;5096471;28;20027;-74
2024/04/07 09:23:49;;;;;;;13.70;1.83;;;;;;;11.52;100.00;100580.34;5118398;28;20104;-74
2024/04/07 09:26:15;;;;;;;10.32;1.88;;;;;;;11.45;100.00;100579.53;5098703;28;20024;-75
2024/04/07 09:28:41;;;;;;;8.10;1.80;;;;;;;11.40;100.00;100579.34;5115746;28;20151;-74
2024/04/07 09:31:06;;;;;;;13.30;2.10;;;;;;;11.31;100.00;100554.50;5101265;28;20068;-73
2024/04/07 09:33:34;;;;;;;11.75;1.95;;;;;;;11.55;100.00;100590.72;5119994;28;20429;-73
2024/04/07 09:36:00;;;;;;;10.43;2.00;;;;;;;11.47;100.00;100569.41;5100159;28;20485;-74
2024/04/07 09:38:25;;;;;;;10.13;1.90;;;;;;;11.63;100.00;100598.59;5083612;28;20035;-74
2024/04/07 09:40:56;;;;;;;12.38;1.80;;;;;;;11.74;100.00;100591.72;5100032;28;20079;-73
2024/04/07 09:43:27;;;;;;;9.07;1.73;;;;;;;11.73;100.00;100577.41;5118287;28;20027;-74
2024/04/07 09:45:53;;;;;;;13.13;2.08;;;;;;;11.83;100.00;100584.22;5082664;28;20435;-73
2024/04/07 09:48:26;;;;;;;7.55;1.90;;;;;;;11.90;100.00;100571.56;5100457;28;20027;-74
2024/04/07 09:51:04;;;;;;;11.55;1.70;;;;;;;12.01;100.00;100592.47;5101025;28;20495;-73
2024/04/07 09:53:41;;;;;;;10.18;1.73;;;;;;;12.04;100.00;100586.66;5100864;28;20016;-73
2024/04/07 09:56:11;;;;;;;10.65;1.90;;;;;;;11.96;100.00;100579.63;5118749;28;20120;-73
2024/04/07 09:58:38;;;;;;;9.00;1.60;;;;;;;11.98;100.00;100582.94;5100635;28;20023;-75
2024/04/07 10:01:04;;;;;;;14.27;1.85;;;;;;;11.80;100.00;100576.56;5086368;28;20095;-74
2024/04/07 10:03:29;;;;;;;10.40;1.80;;;;;;;11.87;100.00;100602.47;5102634;28;20057;-72
2024/04/07 10:05:55;;;;;;;8.77;1.70;;;;;;;11.97;100.00;100612.81;5083828;28;20432;-72
2024/04/07 10:08:21;;;;;;;11.85;2.35;;;;;;;11.96;100.00;100586.91;5119435;28;20054;-73
2024/04/07 10:10:46;;;;;;;13.30;2.13;;;;;;;12.03;100.00;100593.09;5083558;28;20103;-74
2024/04/07 10:13:17;;;;;;;14.45;2.53;;;;;;;12.12;100.00;100599.91;5082571;28;20027;-71
2024/04/07 10:15:49;;;;;;;14.80;2.30;;;;;;;12.04;100.00;100586.66;5117102;28;20076;-72
2024/04/07 10:18:18;;;;;;;13.55;2.03;;;;;;;12.14;100.00;100596.97;5082652;28;20080;-72
2024/04/07 10:20:44;;;;;;;12.13;1.80;;;;;;;12.15;100.00;100610.28;5097956;28;20035;-72
2024/04/07 10:23:13;;;;;;;8.20;1.80;;;;;;;12.29;100.00;100613.72;5098741;28;20038;-72
2024/04/07 10:25:46;;;;;;;10.38;1.95;;;;;;;12.23;100.00;100591.13;5099169;28;20031;-72
2024/04/07 10:28:12;;;;;;;13.80;2.33;;;;;;;12.40;100.00;100607.63;5116050;28;20274;-71
2024/04/07 10:30:49;;;;;;;12.65;2.53;;;;;;;12.43;100.00;100598.28;5097570;28;20037;-72
2024/04/07 10:33:14;;;;;;;9.07;1.98;;;;;;;12.51;100.00;100614.22;5115428;28;20031;-72
2024/04/07 10:35:59;;;;;;;11.05;1.98;;;;;;;12.34;100.00;100578.81;5096103;28;20027;-72
2024/04/07 10:38:25;;;;;;;12.30;1.92;;;;;;;12.59;100.00;100611.28;5096112;28;20028;-72
2024/04/07 10:40:55;;;;;;;10.43;3.05;;;;;;;12.60;100.00;100614.81;5095890;28;20031;-71
2024/04/07 10:43:21;;;;;;;11.93;2.17;;;;;;;12.57;100.00;100623.31;5097521;28;20026;-71
2024/04/07 10:45:48;;;;;;;14.23;2.20;;;;;;;12.62;100.00;100635.13;5080615;28;20509;-71
2024/04/07 10:48:14;;;;;;;11.95;1.83;;;;;;;12.30;100.00;100563.28;5115851;28;20043;-73
2024/04/07 10:50:40;;;;;;;10.63;2.33;;;;;;;12.72;100.00;100631.97;5115237;28;20069;-72
2024/04/07 10:53:08;;;;;;;12.80;2.53;;;;;;;12.64;100.00;100629.50;5115608;28;20024;-72
2024/04/07 10:55:34;;;;;;;12.98;2.00;;;;;;;12.68;100.00;100639.69;5114754;28;20032;-71
2024/04/07 10:58:00;;;;;;;10.38;2.00;;;;;;;12.69;100.00;100630.53;5096290;28;20084;-72
2024/04/07 11:00:26;;;;;;;10.43;2.28;;;;;;;12.77;100.00;100650.19;5096536;28;20023;-72
2024/04/07 11:02:52;;;;;;;8.82;1.90;;;;;;;12.64;100.00;100654.63;5114554;28;20081;-73
2024/04/07 11:05:18;;;;;;;11.10;2.60;;;;;;;12.65;100.00;100653.59;5096119;28;20088;-71
2024/04/07 11:07:45;;;;;;;13.18;2.20;;;;;;;12.66;100.00;100649.84;5114828;28;20487;-72
2024/04/07 11:10:10;;;;;;;15.90;2.22;;;;;;;12.76;100.00;100660.19;5114921;28;20473;-72